sensor_id;sensor_type;location;lat;lon;timestamp;temperature;humidity
59025;DHT22;44806;48.008;13.666;2023-08-06T00:00:52;16.80;99.90
59025;DHT22;44806;48.008;13.666;2023-08-06T00:03:19;16.80;99.90
59025;DHT22;44806;48.008;13.666;2023-08-06T00:05:46;16.90;99.90
59025;DHT22;44806;48.008;13.666;2023-08-06T00:08:14;16.90;99.90
59025;DHT22;44806;48.008;13.666;2023-08-06T00:10:41;16.90;99.90
59025;DHT22;44806;48.008;13.666;2023-08-06T00:13:08;16.80;99.90
59025;DHT22;44806;48.008;13.666;2023-08-06T00:15:35;16.70;99.90
59025;DHT22;44806;48.008;13.666;2023-08-06T00:18:02;16.70;99.90
59025;DHT22;44806;48.008;13.666;2023-08-06T00:20:29;16.70;99.90
59025;DHT22;44806;48.008;13.666;2023-08-06T00:22:56;16.70;99.90
59025;DHT22;44806;48.008;13.666;2023-08-06T00:25:24;16.70;99.90
59025;DHT22;44806;48.008;13.666;2023-08-06T00:27:51;16.60;99.90
59025;DHT22;44806;48.008;13.666;2023-08-06T00:30:18;16.50;99.90
59025;DHT22;44806;48.008;13.666;2023-08-06T00:32:45;16.40;99.90
59025;DHT22;44806;48.008;13.666;2023-08-06T00:35:12;16.50;99.90
59025;DHT22;44806;48.008;13.666;2023-08-06T00:37:40;16.40;99.90
59025;DHT22;44806;48.008;13.666;2023-08-06T00:40:07;16.30;99.90
59025;DHT22;44806;48.008;13.666;2023-08-06T00:42:36;16.20;99.90
59025;DHT22;44806;48.008;13.666;2023-08-06T00:45:03;16.30;99.90
59025;DHT22;44806;48.008;13.666;2023-08-06T00:47:31;16.50;99.90
59025;DHT22;44806;48.008;13.666;2023-08-06T00:49:58;16.50;99.90
59025;DHT22;44806;48.008;13.666;2023-08-06T00:52:24;16.50;99.90
59025;DHT22;44806;48.008;13.666;2023-08-06T00:54:52;16.60;99.90
59025;DHT22;44806;48.008;13.666;2023-08-06T00:57:20;16.60;99.90
59025;DHT22;44806;48.008;13.666;2023-08-06T00:59:49;16.60;99.90
59025;DHT22;44806;48.008;13.666;2023-08-06T01:02:16;16.60;99.90
59025;DHT22;44806;48.008;13.666;2023-08-06T01:04:43;16.50;99.90
59025;DHT22;44806;48.008;13.666;2023-08-06T01:07:16;16.30;99.90
59025;DHT22;44806;48.008;13.666;2023-08-06T01:09:52;16.30;99.90
59025;DHT22;44806;48.008;13.666;2023-08-06T01:12:29;16.30;99.90
59025;DHT22;44806;48.008;13.666;2023-08-06T01:15:05;16.50;99.90
59025;DHT22;44806;48.008;13.666;2023-08-06T01:17:35;16.40;99.90
59025;DHT22;44806;48.008;13.666;2023-08-06T01:20:03;16.30;99.90
59025;DHT22;44806;48.008;13.666;2023-08-06T01:22:31;16.30;99.90
59025;DHT22;44806;48.008;13.666;2023-08-06T01:24:58;16.30;99.90
59025;DHT22;44806;48.008;13.666;2023-08-06T01:27:30;16.30;99.90
59025;DHT22;44806;48.008;13.666;2023-08-06T01:30:02;16.20;99.90
59025;DHT22;44806;48.008;13.666;2023-08-06T01:32:32;16.30;99.90
59025;DHT22;44806;48.008;13.666;2023-08-06T01:35:02;16.10;99.90
59025;DHT22;44806;48.008;13.666;2023-08-06T01:37:32;15.90;99.90
59025;DHT22;44806;48.008;13.666;2023-08-06T01:39:59;15.90;99.90
59025;DHT22;44806;48.008;13.666;2023-08-06T01:42:26;15.90;99.90
59025;DHT22;44806;48.008;13.666;2023-08-06T01:44:53;15.90;99.90
59025;DHT22;44806;48.008;13.666;2023-08-06T01:47:20;15.60;99.90
59025;DHT22;44806;48.008;13.666;2023-08-06T01:49:47;15.50;99.90
59025;DHT22;44806;48.008;13.666;2023-08-06T01:52:14;15.60;99.90
59025;DHT22;44806;48.008;13.666;2023-08-06T01:54:42;15.70;99.90
59025;DHT22;44806;48.008;13.666;2023-08-06T01:57:09;15.60;99.90
59025;DHT22;44806;48.008;13.666;2023-08-06T01:59:36;15.70;99.90
59025;DHT22;44806;48.008;13.666;2023-08-06T02:02:03;15.60;99.90
59025;DHT22;44806;48.008;13.666;2023-08-06T02:04:30;15.60;99.90
59025;DHT22;44806;48.008;13.666;2023-08-06T02:06:57;15.50;99.90
59025;DHT22;44806;48.008;13.666;2023-08-06T02:09:24;15.50;99.90
59025;DHT22;44806;48.008;13.666;2023-08-06T02:11:52;15.40;99.90
59025;DHT22;44806;48.008;13.666;2023-08-06T02:14:19;15.40;99.90
59025;DHT22;44806;48.008;13.666;2023-08-06T02:16:46;15.40;99.90
59025;DHT22;44806;48.008;13.666;2023-08-06T02:19:13;15.30;99.90
59025;DHT22;44806;48.008;13.666;2023-08-06T02:21:41;15.30;99.90
59025;DHT22;44806;48.008;13.666;2023-08-06T02:24:08;15.40;99.90
59025;DHT22;44806;48.008;13.666;2023-08-06T02:26:34;15.30;99.90
59025;DHT22;44806;48.008;13.666;2023-08-06T02:29:03;15.30;99.90
59025;DHT22;44806;48.008;13.666;2023-08-06T02:34:42;15.30;99.90
59025;DHT22;44806;48.008;13.666;2023-08-06T02:37:10;15.30;99.90
59025;DHT22;44806;48.008;13.666;2023-08-06T02:39:37;15.30;99.90
59025;DHT22;44806;48.008;13.666;2023-08-06T02:42:06;15.20;99.90
59025;DHT22;44806;48.008;13.666;2023-08-06T02:44:34;15.20;99.90
59025;DHT22;44806;48.008;13.666;2023-08-06T02:47:01;15.10;99.90
59025;DHT22;44806;48.008;13.666;2023-08-06T02:49:28;15.00;99.90
59025;DHT22;44806;48.008;13.666;2023-08-06T02:51:55;15.10;99.90
59025;DHT22;44806;48.008;13.666;2023-08-06T02:54:22;15.10;99.90
59025;DHT22;44806;48.008;13.666;2023-08-06T02:56:49;15.10;99.90
59025;DHT22;44806;48.008;13.666;2023-08-06T02:59:15;15.00;99.90
59025;DHT22;44806;48.008;13.666;2023-08-06T03:01:44;15.00;99.90
59025;DHT22;44806;48.008;13.666;2023-08-06T03:04:10;14.90;99.90
59025;DHT22;44806;48.008;13.666;2023-08-06T03:06:38;15.00;99.90
59025;DHT22;44806;48.008;13.666;2023-08-06T03:09:05;15.10;99.90
59025;DHT22;44806;48.008;13.666;2023-08-06T03:11:30;15.20;99.90
59025;DHT22;44806;48.008;13.666;2023-08-06T03:13:57;15.20;99.90
59025;DHT22;44806;48.008;13.666;2023-08-06T03:16:24;15.20;99.90
59025;DHT22;44806;48.008;13.666;2023-08-06T03:18:52;15.30;99.90
59025;DHT22;44806;48.008;13.666;2023-08-06T03:21:19;15.40;99.90
59025;DHT22;44806;48.008;13.666;2023-08-06T03:23:47;15.50;99.90
59025;DHT22;44806;48.008;13.666;2023-08-06T03:26:14;15.50;99.90
59025;DHT22;44806;48.008;13.666;2023-08-06T03:28:41;15.60;99.90
59025;DHT22;44806;48.008;13.666;2023-08-06T03:31:08;15.60;99.90
59025;DHT22;44806;48.008;13.666;2023-08-06T03:33:35;15.50;99.90
59025;DHT22;44806;48.008;13.666;2023-08-06T03:36:04;15.40;99.90
59025;DHT22;44806;48.008;13.666;2023-08-06T03:38:31;15.40;99.90
59025;DHT22;44806;48.008;13.666;2023-08-06T03:40:58;15.40;99.90
59025;DHT22;44806;48.008;13.666;2023-08-06T03:43:24;15.30;99.90
59025;DHT22;44806;48.008;13.666;2023-08-06T03:45:51;15.40;99.90
59025;DHT22;44806;48.008;13.666;2023-08-06T03:48:18;15.30;99.90
59025;DHT22;44806;48.008;13.666;2023-08-06T03:50:45;15.40;99.90
59025;DHT22;44806;48.008;13.666;2023-08-06T03:53:13;15.30;99.90
59025;DHT22;44806;48.008;13.666;2023-08-06T03:55:41;15.30;99.90
59025;DHT22;44806;48.008;13.666;2023-08-06T03:58:08;15.20;99.90
59025;DHT22;44806;48.008;13.666;2023-08-06T04:00:35;15.00;99.90
59025;DHT22;44806;48.008;13.666;2023-08-06T04:03:02;15.10;99.90
59025;DHT22;44806;48.008;13.666;2023-08-06T04:05:31;15.20;99.90
59025;DHT22;44806;48.008;13.666;2023-08-06T04:07:58;15.10;99.90
59025;DHT22;44806;48.008;13.666;2023-08-06T04:10:27;15.10;99.90
59025;DHT22;44806;48.008;13.666;2023-08-06T04:12:54;15.00;99.90
59025;DHT22;44806;48.008;13.666;2023-08-06T04:15:21;14.90;99.90
59025;DHT22;44806;48.008;13.666;2023-08-06T04:17:48;14.90;99.90
59025;DHT22;44806;48.008;13.666;2023-08-06T04:20:15;14.90;99.90
59025;DHT22;44806;48.008;13.666;2023-08-06T04:22:42;14.90;99.90
59025;DHT22;44806;48.008;13.666;2023-08-06T04:25:09;15.00;99.90
59025;DHT22;44806;48.008;13.666;2023-08-06T04:27:37;14.90;99.90
59025;DHT22;44806;48.008;13.666;2023-08-06T04:30:08;14.90;99.90
59025;DHT22;44806;48.008;13.666;2023-08-06T04:32:37;14.90;99.90
59025;DHT22;44806;48.008;13.666;2023-08-06T04:35:04;14.90;99.90
59025;DHT22;44806;48.008;13.666;2023-08-06T04:37:31;15.00;99.90
59025;DHT22;44806;48.008;13.666;2023-08-06T04:39:58;15.10;99.90
59025;DHT22;44806;48.008;13.666;2023-08-06T04:42:25;15.00;99.90
59025;DHT22;44806;48.008;13.666;2023-08-06T04:44:53;15.00;99.90
59025;DHT22;44806;48.008;13.666;2023-08-06T04:47:20;15.00;99.90
59025;DHT22;44806;48.008;13.666;2023-08-06T04:49:47;15.00;99.90
59025;DHT22;44806;48.008;13.666;2023-08-06T04:52:14;15.00;99.90
59025;DHT22;44806;48.008;13.666;2023-08-06T04:54:41;15.10;99.90
59025;DHT22;44806;48.008;13.666;2023-08-06T04:57:08;15.20;99.90
59025;DHT22;44806;48.008;13.666;2023-08-06T04:59:35;15.20;99.90
59025;DHT22;44806;48.008;13.666;2023-08-06T05:02:04;15.10;99.90
59025;DHT22;44806;48.008;13.666;2023-08-06T05:04:31;15.20;99.90
59025;DHT22;44806;48.008;13.666;2023-08-06T05:06:58;15.20;99.90
59025;DHT22;44806;48.008;13.666;2023-08-06T05:09:26;15.20;99.90
59025;DHT22;44806;48.008;13.666;2023-08-06T05:11:53;15.20;99.90
59025;DHT22;44806;48.008;13.666;2023-08-06T05:14:19;15.30;99.90
59025;DHT22;44806;48.008;13.666;2023-08-06T05:16:46;15.30;99.90
59025;DHT22;44806;48.008;13.666;2023-08-06T05:19:15;15.30;99.90
59025;DHT22;44806;48.008;13.666;2023-08-06T05:21:41;15.30;99.90
59025;DHT22;44806;48.008;13.666;2023-08-06T05:24:08;15.50;99.90
59025;DHT22;44806;48.008;13.666;2023-08-06T05:26:35;15.40;99.90
59025;DHT22;44806;48.008;13.666;2023-08-06T05:29:03;15.40;99.90
59025;DHT22;44806;48.008;13.666;2023-08-06T05:31:30;15.30;99.90
59025;DHT22;44806;48.008;13.666;2023-08-06T05:33:57;15.30;99.90
59025;DHT22;44806;48.008;13.666;2023-08-06T05:36:25;15.40;99.90
59025;DHT22;44806;48.008;13.666;2023-08-06T05:38:52;15.40;99.90
59025;DHT22;44806;48.008;13.666;2023-08-06T05:41:19;15.40;99.90
59025;DHT22;44806;48.008;13.666;2023-08-06T05:43:46;15.40;99.90
59025;DHT22;44806;48.008;13.666;2023-08-06T05:46:13;15.30;99.90
59025;DHT22;44806;48.008;13.666;2023-08-06T05:48:40;15.30;99.90
59025;DHT22;44806;48.008;13.666;2023-08-06T05:51:07;15.40;99.90
59025;DHT22;44806;48.008;13.666;2023-08-06T05:53:35;15.50;99.90
59025;DHT22;44806;48.008;13.666;2023-08-06T05:56:02;15.60;99.90
59025;DHT22;44806;48.008;13.666;2023-08-06T05:58:29;15.60;99.90
59025;DHT22;44806;48.008;13.666;2023-08-06T06:00:56;15.60;99.90
59025;DHT22;44806;48.008;13.666;2023-08-06T06:03:23;15.60;99.90
59025;DHT22;44806;48.008;13.666;2023-08-06T06:05:50;15.60;99.90
59025;DHT22;44806;48.008;13.666;2023-08-06T06:08:16;15.70;99.90
59025;DHT22;44806;48.008;13.666;2023-08-06T06:10:45;15.70;99.90
59025;DHT22;44806;48.008;13.666;2023-08-06T06:13:12;15.70;99.90
59025;DHT22;44806;48.008;13.666;2023-08-06T06:15:38;15.60;99.90
59025;DHT22;44806;48.008;13.666;2023-08-06T06:18:05;15.60;99.90
59025;DHT22;44806;48.008;13.666;2023-08-06T06:20:32;15.60;99.90
59025;DHT22;44806;48.008;13.666;2023-08-06T06:22:59;15.70;99.90
59025;DHT22;44806;48.008;13.666;2023-08-06T06:25:26;15.60;99.90
59025;DHT22;44806;48.008;13.666;2023-08-06T06:27:54;15.60;99.90
59025;DHT22;44806;48.008;13.666;2023-08-06T06:30:21;15.50;99.90
59025;DHT22;44806;48.008;13.666;2023-08-06T06:32:48;15.60;99.90
59025;DHT22;44806;48.008;13.666;2023-08-06T06:35:15;15.40;99.90
59025;DHT22;44806;48.008;13.666;2023-08-06T06:37:42;15.40;99.90
59025;DHT22;44806;48.008;13.666;2023-08-06T06:40:10;15.40;99.90
59025;DHT22;44806;48.008;13.666;2023-08-06T06:42:37;15.40;99.90
59025;DHT22;44806;48.008;13.666;2023-08-06T06:45:07;15.50;99.90
59025;DHT22;44806;48.008;13.666;2023-08-06T06:47:34;15.50;99.90
59025;DHT22;44806;48.008;13.666;2023-08-06T06:50:00;15.60;99.90
59025;DHT22;44806;48.008;13.666;2023-08-06T06:52:27;15.50;99.90
59025;DHT22;44806;48.008;13.666;2023-08-06T06:54:54;15.60;99.90
59025;DHT22;44806;48.008;13.666;2023-08-06T06:57:21;15.40;99.90
59025;DHT22;44806;48.008;13.666;2023-08-06T06:59:48;15.30;99.90
59025;DHT22;44806;48.008;13.666;2023-08-06T07:02:16;15.20;99.90
59025;DHT22;44806;48.008;13.666;2023-08-06T07:04:43;15.30;99.90
59025;DHT22;44806;48.008;13.666;2023-08-06T07:07:10;15.30;99.90
59025;DHT22;44806;48.008;13.666;2023-08-06T07:09:37;15.10;99.90
59025;DHT22;44806;48.008;13.666;2023-08-06T07:12:05;15.10;99.90
59025;DHT22;44806;48.008;13.666;2023-08-06T07:14:32;15.20;99.90
59025;DHT22;44806;48.008;13.666;2023-08-06T07:16:58;15.20;99.90
59025;DHT22;44806;48.008;13.666;2023-08-06T07:19:27;15.30;99.90
59025;DHT22;44806;48.008;13.666;2023-08-06T07:21:54;15.20;99.90
59025;DHT22;44806;48.008;13.666;2023-08-06T07:24:21;15.30;99.90
59025;DHT22;44806;48.008;13.666;2023-08-06T07:26:48;15.10;99.90
59025;DHT22;44806;48.008;13.666;2023-08-06T07:29:15;15.10;99.90
59025;DHT22;44806;48.008;13.666;2023-08-06T07:31:45;15.30;99.90
59025;DHT22;44806;48.008;13.666;2023-08-06T07:34:12;15.30;99.90
59025;DHT22;44806;48.008;13.666;2023-08-06T07:36:40;15.40;99.90
59025;DHT22;44806;48.008;13.666;2023-08-06T07:39:09;15.40;99.90
59025;DHT22;44806;48.008;13.666;2023-08-06T07:41:36;15.40;99.90
59025;DHT22;44806;48.008;13.666;2023-08-06T07:44:04;15.50;99.90
59025;DHT22;44806;48.008;13.666;2023-08-06T07:46:31;15.40;99.90
59025;DHT22;44806;48.008;13.666;2023-08-06T07:48:58;15.50;99.90
59025;DHT22;44806;48.008;13.666;2023-08-06T07:51:25;15.40;99.90
59025;DHT22;44806;48.008;13.666;2023-08-06T07:53:53;15.30;99.90
59025;DHT22;44806;48.008;13.666;2023-08-06T07:56:20;15.40;99.90
59025;DHT22;44806;48.008;13.666;2023-08-06T07:58:47;15.50;99.90
59025;DHT22;44806;48.008;13.666;2023-08-06T08:01:14;15.50;99.90
59025;DHT22;44806;48.008;13.666;2023-08-06T08:03:41;15.60;99.90
59025;DHT22;44806;48.008;13.666;2023-08-06T08:06:08;15.70;99.90
59025;DHT22;44806;48.008;13.666;2023-08-06T08:08:34;15.90;99.90
59025;DHT22;44806;48.008;13.666;2023-08-06T08:11:06;15.90;99.90
59025;DHT22;44806;48.008;13.666;2023-08-06T08:13:33;16.00;99.90
59025;DHT22;44806;48.008;13.666;2023-08-06T08:16:01;16.00;99.90
59025;DHT22;44806;48.008;13.666;2023-08-06T08:18:28;16.10;99.90
59025;DHT22;44806;48.008;13.666;2023-08-06T08:20:56;16.00;99.90
59025;DHT22;44806;48.008;13.666;2023-08-06T08:23:23;16.00;99.90
59025;DHT22;44806;48.008;13.666;2023-08-06T08:25:50;16.10;99.90
59025;DHT22;44806;48.008;13.666;2023-08-06T08:28:19;16.20;99.90
59025;DHT22;44806;48.008;13.666;2023-08-06T08:30:46;16.20;99.90
59025;DHT22;44806;48.008;13.666;2023-08-06T08:33:13;16.00;99.90
59025;DHT22;44806;48.008;13.666;2023-08-06T08:35:40;16.10;99.90
59025;DHT22;44806;48.008;13.666;2023-08-06T08:38:07;16.10;99.90
59025;DHT22;44806;48.008;13.666;2023-08-06T08:40:37;16.10;99.90
59025;DHT22;44806;48.008;13.666;2023-08-06T08:43:09;16.10;99.90
59025;DHT22;44806;48.008;13.666;2023-08-06T08:45:39;16.10;99.90
59025;DHT22;44806;48.008;13.666;2023-08-06T08:48:06;16.00;99.90
59025;DHT22;44806;48.008;13.666;2023-08-06T08:50:34;15.90;99.90
59025;DHT22;44806;48.008;13.666;2023-08-06T08:53:01;16.00;99.90
59025;DHT22;44806;48.008;13.666;2023-08-06T08:55:28;15.90;99.90
59025;DHT22;44806;48.008;13.666;2023-08-06T08:57:55;15.80;99.90
59025;DHT22;44806;48.008;13.666;2023-08-06T09:00:22;15.70;99.90
59025;DHT22;44806;48.008;13.666;2023-08-06T09:02:50;15.80;99.90
59025;DHT22;44806;48.008;13.666;2023-08-06T09:05:18;15.70;99.90
59025;DHT22;44806;48.008;13.666;2023-08-06T09:07:48;15.70;99.90
59025;DHT22;44806;48.008;13.666;2023-08-06T09:10:17;15.80;99.90
59025;DHT22;44806;48.008;13.666;2023-08-06T09:12:45;15.90;99.90
59025;DHT22;44806;48.008;13.666;2023-08-06T09:15:11;15.90;99.90
59025;DHT22;44806;48.008;13.666;2023-08-06T09:17:39;15.80;99.90
59025;DHT22;44806;48.008;13.666;2023-08-06T09:20:12;16.00;99.90
59025;DHT22;44806;48.008;13.666;2023-08-06T09:22:39;16.10;99.90
59025;DHT22;44806;48.008;13.666;2023-08-06T09:25:07;16.30;99.90
59025;DHT22;44806;48.008;13.666;2023-08-06T09:27:36;16.50;99.90
59025;DHT22;44806;48.008;13.666;2023-08-06T09:30:04;16.50;99.90
59025;DHT22;44806;48.008;13.666;2023-08-06T09:32:45;16.60;99.90
59025;DHT22;44806;48.008;13.666;2023-08-06T09:35:17;16.70;99.90
59025;DHT22;44806;48.008;13.666;2023-08-06T09:37:44;16.80;99.90
59025;DHT22;44806;48.008;13.666;2023-08-06T09:40:25;17.00;99.90
59025;DHT22;44806;48.008;13.666;2023-08-06T09:42:53;17.20;99.90
59025;DHT22;44806;48.008;13.666;2023-08-06T09:45:20;17.30;99.90
59025;DHT22;44806;48.008;13.666;2023-08-06T09:47:48;17.40;99.90
59025;DHT22;44806;48.008;13.666;2023-08-06T09:50:17;17.30;99.90
59025;DHT22;44806;48.008;13.666;2023-08-06T09:52:45;17.30;99.90
59025;DHT22;44806;48.008;13.666;2023-08-06T09:55:12;17.10;99.90
59025;DHT22;44806;48.008;13.666;2023-08-06T09:57:40;17.10;99.90
59025;DHT22;44806;48.008;13.666;2023-08-06T10:00:08;17.20;99.90
59025;DHT22;44806;48.008;13.666;2023-08-06T10:02:37;17.30;99.90
59025;DHT22;44806;48.008;13.666;2023-08-06T10:05:05;17.50;99.90
59025;DHT22;44806;48.008;13.666;2023-08-06T10:07:33;17.40;99.90
59025;DHT22;44806;48.008;13.666;2023-08-06T10:10:01;17.50;99.90
59025;DHT22;44806;48.008;13.666;2023-08-06T10:12:31;17.50;99.90
59025;DHT22;44806;48.008;13.666;2023-08-06T10:15:02;17.40;99.90
59025;DHT22;44806;48.008;13.666;2023-08-06T10:17:31;17.30;99.90
59025;DHT22;44806;48.008;13.666;2023-08-06T10:19:59;17.40;99.90
59025;DHT22;44806;48.008;13.666;2023-08-06T10:22:26;17.60;99.90
59025;DHT22;44806;48.008;13.666;2023-08-06T10:24:56;17.70;99.90
59025;DHT22;44806;48.008;13.666;2023-08-06T10:27:28;17.80;99.90
59025;DHT22;44806;48.008;13.666;2023-08-06T10:29:56;17.80;99.90
59025;DHT22;44806;48.008;13.666;2023-08-06T10:32:46;17.90;99.90
59025;DHT22;44806;48.008;13.666;2023-08-06T10:35:28;17.60;99.90
59025;DHT22;44806;48.008;13.666;2023-08-06T10:37:58;17.90;99.90
59025;DHT22;44806;48.008;13.666;2023-08-06T10:40:27;18.10;99.90
59025;DHT22;44806;48.008;13.666;2023-08-06T10:42:55;18.10;99.90
59025;DHT22;44806;48.008;13.666;2023-08-06T10:45:22;18.10;99.90
59025;DHT22;44806;48.008;13.666;2023-08-06T10:47:54;18.20;99.90
59025;DHT22;44806;48.008;13.666;2023-08-06T10:50:21;18.20;99.90
59025;DHT22;44806;48.008;13.666;2023-08-06T10:52:48;18.20;99.90
59025;DHT22;44806;48.008;13.666;2023-08-06T10:55:23;18.30;99.90
59025;DHT22;44806;48.008;13.666;2023-08-06T10:57:52;18.30;99.90
59025;DHT22;44806;48.008;13.666;2023-08-06T11:00:21;18.00;99.90
59025;DHT22;44806;48.008;13.666;2023-08-06T11:02:48;17.70;99.90
59025;DHT22;44806;48.008;13.666;2023-08-06T11:05:15;17.50;99.90
59025;DHT22;44806;48.008;13.666;2023-08-06T11:07:42;17.20;99.90
59025;DHT22;44806;48.008;13.666;2023-08-06T11:10:11;17.00;99.90
59025;DHT22;44806;48.008;13.666;2023-08-06T11:12:38;16.60;99.90
59025;DHT22;44806;48.008;13.666;2023-08-06T11:15:08;16.30;99.90
59025;DHT22;44806;48.008;13.666;2023-08-06T11:17:36;16.30;99.90
59025;DHT22;44806;48.008;13.666;2023-08-06T11:20:04;16.20;99.90
59025;DHT22;44806;48.008;13.666;2023-08-06T11:22:31;16.40;99.90
59025;DHT22;44806;48.008;13.666;2023-08-06T11:24:58;16.60;99.90
59025;DHT22;44806;48.008;13.666;2023-08-06T11:27:27;16.90;99.90
59025;DHT22;44806;48.008;13.666;2023-08-06T11:29:54;17.20;99.90
59025;DHT22;44806;48.008;13.666;2023-08-06T11:32:23;17.30;99.90
59025;DHT22;44806;48.008;13.666;2023-08-06T11:34:50;17.40;99.90
59025;DHT22;44806;48.008;13.666;2023-08-06T11:37:20;17.60;99.90
59025;DHT22;44806;48.008;13.666;2023-08-06T11:39:49;17.30;99.90
59025;DHT22;44806;48.008;13.666;2023-08-06T11:42:16;17.20;99.90
59025;DHT22;44806;48.008;13.666;2023-08-06T11:44:43;17.10;99.90
59025;DHT22;44806;48.008;13.666;2023-08-06T11:47:13;17.10;99.90
59025;DHT22;44806;48.008;13.666;2023-08-06T11:49:43;17.40;99.90
59025;DHT22;44806;48.008;13.666;2023-08-06T11:52:15;17.60;99.90
59025;DHT22;44806;48.008;13.666;2023-08-06T11:54:45;17.90;99.90
59025;DHT22;44806;48.008;13.666;2023-08-06T11:57:12;18.30;99.90
59025;DHT22;44806;48.008;13.666;2023-08-06T11:59:39;18.30;99.90
59025;DHT22;44806;48.008;13.666;2023-08-06T12:02:09;18.50;99.90
59025;DHT22;44806;48.008;13.666;2023-08-06T12:05:00;18.70;99.90
59025;DHT22;44806;48.008;13.666;2023-08-06T12:07:36;18.70;99.90
59025;DHT22;44806;48.008;13.666;2023-08-06T12:10:04;18.60;99.90
59025;DHT22;44806;48.008;13.666;2023-08-06T12:12:31;19.00;99.90
59025;DHT22;44806;48.008;13.666;2023-08-06T12:14:58;19.10;99.90
59025;DHT22;44806;48.008;13.666;2023-08-06T12:17:25;19.10;99.90
59025;DHT22;44806;48.008;13.666;2023-08-06T12:19:52;18.90;99.90
59025;DHT22;44806;48.008;13.666;2023-08-06T12:22:21;19.00;99.50
59025;DHT22;44806;48.008;13.666;2023-08-06T12:24:47;18.70;99.90
59025;DHT22;44806;48.008;13.666;2023-08-06T12:27:14;18.90;99.90
59025;DHT22;44806;48.008;13.666;2023-08-06T12:29:42;18.70;99.90
59025;DHT22;44806;48.008;13.666;2023-08-06T12:32:09;18.60;99.90
59025;DHT22;44806;48.008;13.666;2023-08-06T12:34:37;18.30;99.90
59025;DHT22;44806;48.008;13.666;2023-08-06T12:37:05;18.00;99.90
59025;DHT22;44806;48.008;13.666;2023-08-06T12:39:34;17.70;99.90
59025;DHT22;44806;48.008;13.666;2023-08-06T12:42:01;17.90;99.90
59025;DHT22;44806;48.008;13.666;2023-08-06T12:44:28;17.70;99.90
59025;DHT22;44806;48.008;13.666;2023-08-06T12:46:55;17.70;99.90
59025;DHT22;44806;48.008;13.666;2023-08-06T12:49:22;17.50;99.90
59025;DHT22;44806;48.008;13.666;2023-08-06T12:51:50;17.40;99.90
59025;DHT22;44806;48.008;13.666;2023-08-06T12:54:18;17.80;99.90
59025;DHT22;44806;48.008;13.666;2023-08-06T12:56:47;17.70;99.90
59025;DHT22;44806;48.008;13.666;2023-08-06T12:59:15;17.80;99.90
59025;DHT22;44806;48.008;13.666;2023-08-06T13:01:42;17.80;99.90
59025;DHT22;44806;48.008;13.666;2023-08-06T13:04:09;17.90;99.90
59025;DHT22;44806;48.008;13.666;2023-08-06T13:06:36;17.70;99.90
59025;DHT22;44806;48.008;13.666;2023-08-06T13:09:05;17.80;99.90
59025;DHT22;44806;48.008;13.666;2023-08-06T13:11:34;17.70;99.90
59025;DHT22;44806;48.008;13.666;2023-08-06T13:14:07;17.80;99.90
59025;DHT22;44806;48.008;13.666;2023-08-06T13:16:34;17.80;99.90
59025;DHT22;44806;48.008;13.666;2023-08-06T13:19:01;17.90;99.90
59025;DHT22;44806;48.008;13.666;2023-08-06T13:21:32;17.90;99.90
59025;DHT22;44806;48.008;13.666;2023-08-06T13:23:59;18.30;99.90
59025;DHT22;44806;48.008;13.666;2023-08-06T13:26:27;18.40;99.90
59025;DHT22;44806;48.008;13.666;2023-08-06T13:28:54;18.40;99.20
59025;DHT22;44806;48.008;13.666;2023-08-06T13:31:22;18.70;99.90
59025;DHT22;44806;48.008;13.666;2023-08-06T13:33:49;18.70;98.40
59025;DHT22;44806;48.008;13.666;2023-08-06T13:36:16;18.60;97.20
59025;DHT22;44806;48.008;13.666;2023-08-06T13:38:43;18.70;99.60
59025;DHT22;44806;48.008;13.666;2023-08-06T13:41:10;18.80;97.00
59025;DHT22;44806;48.008;13.666;2023-08-06T13:43:37;18.60;96.90
59025;DHT22;44806;48.008;13.666;2023-08-06T13:46:04;18.40;96.10
59025;DHT22;44806;48.008;13.666;2023-08-06T13:48:32;18.00;96.40
59025;DHT22;44806;48.008;13.666;2023-08-06T13:51:00;17.90;98.90
59025;DHT22;44806;48.008;13.666;2023-08-06T13:53:27;17.30;99.60
59025;DHT22;44806;48.008;13.666;2023-08-06T13:55:55;17.10;99.90
59025;DHT22;44806;48.008;13.666;2023-08-06T13:58:23;17.20;99.90
59025;DHT22;44806;48.008;13.666;2023-08-06T14:00:51;17.10;99.90
59025;DHT22;44806;48.008;13.666;2023-08-06T14:03:19;17.00;99.90
59025;DHT22;44806;48.008;13.666;2023-08-06T14:05:48;17.00;99.90
59025;DHT22;44806;48.008;13.666;2023-08-06T14:08:15;17.30;99.90
59025;DHT22;44806;48.008;13.666;2023-08-06T14:10:43;17.50;99.90
59025;DHT22;44806;48.008;13.666;2023-08-06T14:13:10;17.70;99.90
59025;DHT22;44806;48.008;13.666;2023-08-06T14:15:38;17.60;99.90
59025;DHT22;44806;48.008;13.666;2023-08-06T14:18:05;17.60;99.90
59025;DHT22;44806;48.008;13.666;2023-08-06T14:20:33;17.50;99.90
59025;DHT22;44806;48.008;13.666;2023-08-06T14:23:02;17.40;99.90
59025;DHT22;44806;48.008;13.666;2023-08-06T14:25:29;17.50;99.90
59025;DHT22;44806;48.008;13.666;2023-08-06T14:27:56;17.60;99.90
59025;DHT22;44806;48.008;13.666;2023-08-06T14:30:23;18.10;99.90
59025;DHT22;44806;48.008;13.666;2023-08-06T14:32:49;18.30;99.90
59025;DHT22;44806;48.008;13.666;2023-08-06T14:35:16;18.20;97.80
59025;DHT22;44806;48.008;13.666;2023-08-06T14:37:43;18.20;99.90
59025;DHT22;44806;48.008;13.666;2023-08-06T14:40:13;18.40;98.40
59025;DHT22;44806;48.008;13.666;2023-08-06T14:42:40;18.00;98.00
59025;DHT22;44806;48.008;13.666;2023-08-06T14:45:07;18.00;99.10
59025;DHT22;44806;48.008;13.666;2023-08-06T14:47:34;18.20;98.60
59025;DHT22;44806;48.008;13.666;2023-08-06T14:50:01;18.10;97.70
59025;DHT22;44806;48.008;13.666;2023-08-06T14:52:28;17.80;97.60
59025;DHT22;44806;48.008;13.666;2023-08-06T14:54:55;17.80;97.90
59025;DHT22;44806;48.008;13.666;2023-08-06T14:57:23;17.80;98.20
59025;DHT22;44806;48.008;13.666;2023-08-06T14:59:53;17.70;98.70
59025;DHT22;44806;48.008;13.666;2023-08-06T15:02:20;17.50;98.20
59025;DHT22;44806;48.008;13.666;2023-08-06T15:04:47;17.60;98.00
59025;DHT22;44806;48.008;13.666;2023-08-06T15:07:14;17.40;98.60
59025;DHT22;44806;48.008;13.666;2023-08-06T15:09:41;17.50;99.90
59025;DHT22;44806;48.008;13.666;2023-08-06T15:12:08;17.50;99.90
59025;DHT22;44806;48.008;13.666;2023-08-06T15:14:36;17.60;99.90
59025;DHT22;44806;48.008;13.666;2023-08-06T15:17:03;17.30;99.90
59025;DHT22;44806;48.008;13.666;2023-08-06T15:19:30;17.40;99.90
59025;DHT22;44806;48.008;13.666;2023-08-06T15:21:57;17.50;99.90